createdAt,value
2022-11-05T00:01:32.947Z,98719.66
2022-11-05T00:04:17.913Z,98726.78
2022-11-05T00:07:03.075Z,98724.06
2022-11-05T00:09:30.662Z,98732.00
2022-11-05T00:12:16.859Z,98734.81
2022-11-05T00:15:01.695Z,98733.84
2022-11-05T00:17:28.194Z,98740.13
2022-11-05T00:19:54.636Z,98743.66
2022-11-05T00:22:39.819Z,98742.19
2022-11-05T00:25:16.754Z,98746.63
2022-11-05T00:27:47.476Z,98741.19
2022-11-05T00:30:18.115Z,98743.94
2022-11-05T00:32:48.693Z,98743.22
2022-11-05T00:35:15.887Z,98747.56
2022-11-05T00:37:47.120Z,98750.22
2022-11-05T00:40:16.168Z,98754.72
2022-11-05T00:43:01.494Z,98757.47
2022-11-05T00:45:28.472Z,98759.13
2022-11-05T00:48:13.950Z,98756.47
2022-11-05T00:50:40.363Z,98760.16
2022-11-05T00:53:07.119Z,98761.94
2022-11-05T00:55:40.792Z,98769.88
2022-11-05T00:58:09.168Z,98762.75
2022-11-05T01:00:36.814Z,98765.22
2022-11-05T01:03:08.095Z,98770.63
2022-11-05T01:05:37.884Z,98774.94
2022-11-05T01:08:04.341Z,98777.78
2022-11-05T01:10:31.113Z,98766.44
2022-11-05T01:12:57.575Z,98770.56
2022-11-05T01:15:23.940Z,98775.09
2022-11-05T01:17:51.488Z,98783.94
2022-11-05T01:20:17.946Z,98775.19
2022-11-05T01:22:44.372Z,98778.91
2022-11-05T01:25:10.890Z,98777.88
2022-11-05T01:27:38.010Z,98779.66
2022-11-05T01:30:06.047Z,98782.13
2022-11-05T01:32:32.509Z,98786.53
2022-11-05T01:34:58.941Z,98781.09
2022-11-05T01:37:25.371Z,98789.34
2022-11-05T01:39:51.734Z,98795.38
2022-11-05T01:42:25.461Z,98795.56
2022-11-05T01:44:57.664Z,98802.72
2022-11-05T01:47:27.904Z,98807.13
2022-11-05T01:49:55.239Z,98817.75
2022-11-05T01:52:22.473Z,98823.34
2022-11-05T01:54:49.040Z,98837.50
2022-11-05T01:57:15.653Z,98832.41
2022-11-05T01:59:44.254Z,98842.84
2022-11-05T02:02:10.745Z,98843.72
2022-11-05T02:04:42.799Z,98843.84
2022-11-05T02:07:09.587Z,98850.22
2022-11-05T02:09:38.748Z,98847.41
2022-11-05T02:12:06.855Z,98848.19
2022-11-05T02:14:33.274Z,98843.66
2022-11-05T02:17:10.880Z,98846.25
2022-11-05T02:19:56.127Z,98839.97
2022-11-05T02:22:35.183Z,98838.47
2022-11-05T02:25:20.034Z,98839.38
2022-11-05T02:28:01.868Z,98847.19
2022-11-05T02:30:31.239Z,98851.59
2022-11-05T02:33:13.565Z,98861.53
2022-11-05T02:35:40.149Z,98861.44
2022-11-05T02:38:08.956Z,98868.75
2022-11-05T02:40:48.778Z,98867.72
2022-11-05T02:43:53.677Z,98863.22
2022-11-05T02:46:22.795Z,98873.00
2022-11-05T02:48:55.069Z,98868.66
2022-11-05T02:51:30.329Z,98872.22
2022-11-05T02:54:06.385Z,98866.88
2022-11-05T02:56:34.122Z,98871.34
2022-11-05T02:59:00.709Z,98875.22
2022-11-05T03:01:27.298Z,98877.63
2022-11-05T03:03:56.655Z,98880.25
2022-11-05T03:06:34.234Z,98873.22
2022-11-05T03:09:19.315Z,98878.59
2022-11-05T03:11:54.772Z,98893.81
2022-11-05T03:14:24.259Z,98892.28
2022-11-05T03:17:05.105Z,98903.88
2022-11-05T03:19:39.088Z,98901.13
2022-11-05T03:22:10.880Z,98905.59
2022-11-05T03:24:41.303Z,98916.34
2022-11-05T03:27:13.359Z,98910.16
2022-11-05T03:29:43.219Z,98917.25
2022-11-05T03:32:10.956Z,98906.66
2022-11-05T03:34:40.948Z,98916.31
2022-11-05T03:37:08.349Z,98921.66
2022-11-05T03:39:40.720Z,98923.38
2022-11-05T03:42:09.334Z,98922.50
2022-11-05T03:44:38.701Z,98921.44
2022-11-05T03:47:11.315Z,98919.75
2022-11-05T03:49:46.476Z,98910.88
2022-11-05T03:52:17.910Z,98926.00
2022-11-05T03:54:44.401Z,98935.75
2022-11-05T03:57:13.154Z,98940.16
2022-11-05T03:59:41.213Z,98938.28
2022-11-05T04:02:08.016Z,98946.97
2022-11-05T04:04:34.588Z,98944.50
2022-11-05T04:07:19.392Z,98955.16
2022-11-05T04:10:04.642Z,98961.28
2022-11-05T04:12:49.445Z,98954.34
2022-11-05T04:15:15.932Z,98961.53
2022-11-05T04:17:42.383Z,98963.22
2022-11-05T04:20:27.370Z,98971.22
2022-11-05T04:23:22.934Z,98979.09
2022-11-05T04:25:49.308Z,98975.81
2022-11-05T04:28:15.971Z,98990.78
2022-11-05T04:30:44.322Z,98991.66
2022-11-05T04:33:15.233Z,98990.78
2022-11-05T04:35:46.125Z,99001.44
2022-11-05T04:38:15.014Z,99002.25
2022-11-05T04:40:41.780Z,99011.94
2022-11-05T04:43:14.687Z,99010.38
2022-11-05T04:45:41.584Z,99005.03
2022-11-05T04:48:08.271Z,99005.03
2022-11-05T04:50:34.688Z,99010.34
2022-11-05T04:53:01.227Z,99013.31
2022-11-05T04:55:28.505Z,99015.03
2022-11-05T04:57:55.297Z,99017.88
2022-11-05T05:00:22.867Z,99022.34
2022-11-05T05:02:49.669Z,99019.91
2022-11-05T05:05:16.317Z,99015.28
2022-11-05T05:07:44.713Z,99012.78
2022-11-05T05:10:11.704Z,99018.06
2022-11-05T05:12:38.168Z,99015.28
2022-11-05T05:15:04.754Z,99027.91
2022-11-05T05:17:31.202Z,99025.28
2022-11-05T05:20:16.232Z,99023.50
2022-11-05T05:22:42.749Z,99025.28
2022-11-05T05:25:09.260Z,99029.78
2022-11-05T05:27:35.753Z,99030.88
2022-11-05T05:30:02.171Z,99037.13
2022-11-05T05:32:28.603Z,99043.34
2022-11-05T05:34:55.015Z,99041.72
2022-11-05T05:37:21.510Z,99045.81
2022-11-05T05:39:48.549Z,99054.03
2022-11-05T05:42:15.289Z,99053.09
2022-11-05T05:44:41.705Z,99052.25
2022-11-05T05:47:08.114Z,99062.06
2022-11-05T05:49:34.736Z,99057.34
2022-11-05T05:52:01.118Z,99060.31
2022-11-05T05:54:32.097Z,99060.28
2022-11-05T05:56:59.950Z,99074.25
2022-11-05T05:59:26.392Z,99072.50
2022-11-05T06:01:52.877Z,99077.19
2022-11-05T06:04:19.478Z,99077.44
2022-11-05T06:06:46.927Z,99089.06
2022-11-05T06:09:14.121Z,99090.69
2022-11-05T06:11:41.118Z,99091.28
2022-11-05T06:14:09.882Z,99092.28
2022-11-05T06:16:36.338Z,99092.22
2022-11-05T06:19:02.922Z,99091.44
2022-11-05T06:21:29.298Z,99084.19
2022-11-05T06:23:55.701Z,99086.75
2022-11-05T06:26:22.085Z,99094.91
2022-11-05T06:28:48.609Z,99097.66
2022-11-05T06:31:15.520Z,99110.16
2022-11-05T06:33:41.944Z,99116.47
2022-11-05T06:36:12.557Z,99120.91
2022-11-05T06:38:39.109Z,99124.25
2022-11-05T06:41:09.999Z,99130.66
2022-11-05T06:43:37.362Z,99130.59
2022-11-05T06:46:03.819Z,99131.28
2022-11-05T06:48:30.587Z,99142.81
2022-11-05T06:50:57.074Z,99149.91
2022-11-05T06:53:23.506Z,99152.50
2022-11-05T06:55:49.965Z,99157.06
2022-11-05T06:58:16.458Z,99155.19
2022-11-05T07:00:42.854Z,99163.28
2022-11-05T07:03:10.775Z,99170.31
2022-11-05T07:05:38.732Z,99180.00
2022-11-05T07:08:05.142Z,99185.44
2022-11-05T07:10:31.617Z,99188.03
2022-11-05T07:12:58.172Z,99199.63
2022-11-05T07:15:24.668Z,99198.66
2022-11-05T07:17:51.102Z,99201.31
2022-11-05T07:20:17.523Z,99204.84
2022-11-05T07:22:44.382Z,99202.09
2022-11-05T07:25:10.755Z,99211.00
2022-11-05T07:27:38.222Z,99222.47
2022-11-05T07:30:06.213Z,99225.94
2022-11-05T07:32:36.630Z,99225.13
2022-11-05T07:35:03.017Z,99228.56
2022-11-05T07:37:29.361Z,99241.06
2022-11-05T07:39:55.681Z,99244.63
2022-11-05T07:42:22.120Z,99244.41
2022-11-05T07:44:48.528Z,99256.81
2022-11-05T07:47:14.889Z,99257.03
2022-11-05T07:49:41.245Z,99255.38
2022-11-05T07:52:07.584Z,99260.47
2022-11-05T07:54:33.903Z,99256.88
2022-11-05T07:57:01.385Z,99256.03
2022-11-05T07:59:27.707Z,99261.38
2022-11-05T08:01:54.251Z,99263.16
2022-11-05T08:04:20.973Z,99263.97
2022-11-05T08:06:47.411Z,99265.78
2022-11-05T08:09:13.856Z,99267.66
2022-11-05T08:11:40.465Z,99276.34
2022-11-05T08:14:06.920Z,99273.63
2022-11-05T08:16:33.336Z,99268.16
2022-11-05T08:18:59.732Z,99275.44
2022-11-05T08:21:26.156Z,99276.28
2022-11-05T08:23:52.569Z,99288.88
2022-11-05T08:26:19.624Z,99294.28
2022-11-05T08:28:46.033Z,99294.28
2022-11-05T08:31:14.377Z,99297.69
2022-11-05T08:33:40.827Z,99297.78
2022-11-05T08:36:07.398Z,99302.78
2022-11-05T08:38:33.772Z,99300.88
2022-11-05T08:41:00.517Z,99301.66
2022-11-05T08:43:26.910Z,99299.84
2022-11-05T08:45:55.044Z,99309.84
2022-11-05T08:48:21.497Z,99319.53
2022-11-05T08:50:48.778Z,99311.50
2022-11-05T08:53:15.593Z,99313.25
2022-11-05T08:55:42.509Z,99318.59
2022-11-05T08:58:14.972Z,99321.09
2022-11-05T09:00:41.579Z,99330.22
2022-11-05T09:03:09.312Z,99326.41
2022-11-05T09:05:38.202Z,99329.81
2022-11-05T09:08:05.895Z,99329.41
2022-11-05T09:10:32.327Z,99326.66
2022-11-05T09:12:58.722Z,99322.94
2022-11-05T09:15:25.178Z,99333.25
2022-11-05T09:17:51.704Z,99333.00
2022-11-05T09:20:18.071Z,99339.25
2022-11-05T09:22:46.274Z,99340.97
2022-11-05T09:25:12.763Z,99344.78
2022-11-05T09:27:39.281Z,99342.97
2022-11-05T09:30:05.982Z,99347.22
2022-11-05T09:32:32.790Z,99339.00
2022-11-05T09:35:02.380Z,99340.72
2022-11-05T09:37:29.147Z,99347.22
2022-11-05T09:39:55.704Z,99341.53
2022-11-05T09:42:25.364Z,99344.09
2022-11-05T09:44:54.690Z,99345.81
2022-11-05T09:47:27.717Z,99350.25
2022-11-05T09:49:55.533Z,99343.28
2022-11-05T09:52:23.873Z,99346.78
2022-11-05T09:54:51.471Z,99352.72
2022-11-05T09:57:21.719Z,99353.34
2022-11-05T09:59:52.960Z,99355.72
2022-11-05T10:02:22.233Z,99357.38
2022-11-05T10:04:50.424Z,99349.13
2022-11-05T10:07:18.766Z,99355.63
2022-11-05T10:09:47.897Z,99356.09
2022-11-05T10:12:17.263Z,99358.66
2022-11-05T10:14:48.580Z,99360.53
2022-11-05T10:17:22.443Z,99366.09
2022-11-05T10:19:55.587Z,99365.97
2022-11-05T10:22:22.093Z,99378.78
2022-11-05T10:24:49.845Z,99373.41
2022-11-05T10:27:23.356Z,99378.03
2022-11-05T10:29:50.235Z,99383.19
2022-11-05T10:32:37.541Z,99385.69
2022-11-05T10:35:06.440Z,99393.53
2022-11-05T10:37:36.974Z,99391.50
2022-11-05T10:40:14.312Z,99392.38
2022-11-05T10:42:40.753Z,99382.84
2022-11-05T10:45:18.914Z,99387.81
2022-11-05T10:47:45.288Z,99392.81
2022-11-05T10:50:15.532Z,99377.19
2022-11-05T10:52:56.152Z,99384.78
2022-11-05T10:55:25.111Z,99379.69
2022-11-05T10:57:51.535Z,99381.59
2022-11-05T11:00:19.296Z,99384.84
2022-11-05T11:02:47.361Z,99380.19
2022-11-05T11:05:22.251Z,99380.50
2022-11-05T11:07:57.637Z,99380.22
2022-11-05T11:10:25.135Z,99385.88
2022-11-05T11:12:52.081Z,99392.75
2022-11-05T11:15:21.455Z,99386.81
2022-11-05T11:17:47.940Z,99393.31
2022-11-05T11:20:28.225Z,99393.19
2022-11-05T11:23:14.625Z,99383.84
2022-11-05T11:25:50.458Z,99394.38
2022-11-05T11:28:22.581Z,99398.28
2022-11-05T11:30:50.817Z,99401.78
2022-11-05T11:33:20.420Z,99405.50
2022-11-05T11:35:47.314Z,99395.69
2022-11-05T11:38:15.587Z,99400.44
2022-11-05T11:40:42.358Z,99398.13
2022-11-05T11:43:29.099Z,99400.72
2022-11-05T11:46:02.139Z,99402.63
2022-11-05T11:48:34.174Z,99406.19
2022-11-05T11:51:14.685Z,99404.84
2022-11-05T11:53:41.809Z,99405.97
2022-11-05T11:56:08.474Z,99408.75
2022-11-05T11:58:36.729Z,99402.56
2022-11-05T12:01:23.462Z,99393.22
2022-11-05T12:03:58.963Z,99399.56
2022-11-05T12:06:37.071Z,99402.13
2022-11-05T12:09:38.834Z,99402.06
2022-11-05T12:12:15.530Z,99394.19
2022-11-05T12:14:46.280Z,99393.25
2022-11-05T12:17:13.166Z,99401.16
2022-11-05T12:19:43.091Z,99403.22
2022-11-05T12:22:28.529Z,99408.31
2022-11-05T12:25:01.709Z,99405.75
2022-11-05T12:27:28.086Z,99396.13
2022-11-05T12:30:03.449Z,99401.78
2022-11-05T12:32:42.147Z,99402.78
2022-11-05T12:35:15.394Z,99404.88
2022-11-05T12:38:01.033Z,99406.09
2022-11-05T12:40:36.687Z,99403.34
2022-11-05T12:43:16.706Z,99410.19
2022-11-05T12:45:43.360Z,99407.00
2022-11-05T12:48:15.840Z,99407.28
2022-11-05T12:50:42.245Z,99407.06
2022-11-05T12:53:22.930Z,99411.00
2022-11-05T12:55:50.261Z,99414.25
2022-11-05T12:58:19.692Z,99419.31
2022-11-05T13:00:49.543Z,99413.16
2022-11-05T13:03:26.058Z,99411.47
2022-11-05T13:05:55.317Z,99421.81
2022-11-05T13:08:25.129Z,99417.28
2022-11-05T13:11:14.949Z,99414.97
2022-11-05T13:13:48.561Z,99428.56
2022-11-05T13:16:30.808Z,99416.63
2022-11-05T13:19:16.110Z,99424.03
2022-11-05T13:21:44.049Z,99426.25
2022-11-05T13:24:13.670Z,99422.16
2022-11-05T13:26:45.882Z,99430.47
2022-11-05T13:29:15.611Z,99428.06
2022-11-05T13:31:45.533Z,99437.28
2022-11-05T13:34:13.181Z,99437.38
2022-11-05T13:36:58.288Z,99446.69
2022-11-05T13:39:35.204Z,99436.66
2022-11-05T13:42:04.637Z,99443.50
2022-11-05T13:44:39.464Z,99443.34
2022-11-05T13:47:19.685Z,99447.94
2022-11-05T13:50:04.949Z,99447.84
2022-11-05T13:52:34.533Z,99448.72
2022-11-05T13:55:33.438Z,99449.47
2022-11-05T13:58:18.416Z,99458.91
2022-11-05T14:00:57.994Z,99462.81
2022-11-05T14:03:25.184Z,99456.44
2022-11-05T14:05:58.958Z,99455.50
2022-11-05T14:08:27.833Z,99456.25
2022-11-05T14:11:00.294Z,99460.94
2022-11-05T14:13:31.275Z,99466.41
2022-11-05T14:16:02.019Z,99469.94
2022-11-05T14:18:37.798Z,99466.41
2022-11-05T14:21:05.790Z,99460.28
2022-11-05T14:23:38.668Z,99459.41
2022-11-05T14:26:34.350Z,99472.03
2022-11-05T14:29:03.851Z,99467.94
2022-11-05T14:31:54.632Z,99476.00
2022-11-05T14:34:20.238Z,99473.56
2022-11-05T14:37:03.363Z,99469.41
2022-11-05T14:39:31.822Z,99467.97
2022-11-05T14:42:03.111Z,99461.88
2022-11-05T14:44:30.537Z,99471.72
2022-11-05T14:46:59.453Z,99468.28
2022-11-05T14:49:28.662Z,99474.66
2022-11-05T14:51:56.828Z,99475.72
2022-11-05T14:54:26.107Z,99480.41
2022-11-05T14:56:56.576Z,99479.97
2022-11-05T14:59:31.534Z,99483.09
2022-11-05T15:02:01.621Z,99491.75
2022-11-05T15:04:28.160Z,99491.25
2022-11-05T15:07:03.928Z,99497.97
2022-11-05T15:09:46.725Z,99495.78
2022-11-05T15:12:17.385Z,99488.97
2022-11-05T15:15:01.321Z,99494.88
2022-11-05T15:17:30.199Z,99491.66
2022-11-05T15:20:01.359Z,99493.81
2022-11-05T15:22:33.085Z,99503.13
2022-11-05T15:24:59.964Z,99500.81
2022-11-05T15:27:35.294Z,99505.59
2022-11-05T15:30:13.684Z,99501.47
2022-11-05T15:32:40.090Z,99500.00
2022-11-05T15:35:22.169Z,99502.16
2022-11-05T15:37:54.637Z,99508.72
2022-11-05T15:40:32.208Z,99520.56
2022-11-05T15:43:19.484Z,99510.19
2022-11-05T15:45:59.053Z,99522.94
2022-11-05T15:48:25.471Z,99516.09
2022-11-05T15:50:51.909Z,99525.22
2022-11-05T15:53:47.375Z,99526.41
2022-11-05T15:56:19.439Z,99522.22
2022-11-05T15:58:49.872Z,99516.28
2022-11-05T16:01:21.229Z,99518.25
2022-11-05T16:03:48.404Z,99525.59
2022-11-05T16:06:14.853Z,99529.25
2022-11-05T16:08:45.856Z,99528.56
2022-11-05T16:11:20.108Z,99534.88
2022-11-05T16:13:46.568Z,99535.94
2022-11-05T16:16:16.029Z,99543.22
2022-11-05T16:18:43.512Z,99536.22
2022-11-05T16:21:12.140Z,99537.25
2022-11-05T16:23:44.480Z,99536.53
2022-11-05T16:26:55.804Z,99537.59
2022-11-05T16:29:17.624Z,99546.75
2022-11-05T16:31:49.267Z,99537.16
2022-11-05T16:34:24.573Z,99546.25
2022-11-05T16:36:50.980Z,99549.13
2022-11-05T16:39:17.404Z,99552.91
2022-11-05T16:41:44.107Z,99551.22
2022-11-05T16:44:11.485Z,99562.00
2022-11-05T16:46:38.198Z,99560.31
2022-11-05T16:49:04.596Z,99564.81
2022-11-05T16:51:31.089Z,99564.97
2022-11-05T16:53:57.495Z,99560.63
2022-11-05T16:56:24.017Z,99558.97
2022-11-05T16:58:50.505Z,99556.31
2022-11-05T17:01:21.663Z,99565.22
2022-11-05T17:03:49.012Z,99560.03
2022-11-05T17:06:16.627Z,99561.84
2022-11-05T17:08:45.774Z,99576.19
2022-11-05T17:11:17.000Z,99572.66
2022-11-05T17:13:43.545Z,99579.03
2022-11-05T17:16:11.373Z,99577.34
2022-11-05T17:18:38.506Z,99580.94
2022-11-05T17:21:05.523Z,99583.69
2022-11-05T17:23:32.633Z,99587.28
2022-11-05T17:26:01.128Z,99591.81
2022-11-05T17:28:29.096Z,99591.91
2022-11-05T17:30:56.397Z,99589.25
2022-11-05T17:33:23.442Z,99590.19
2022-11-05T17:35:50.285Z,99586.72
2022-11-05T17:38:16.793Z,99591.25
2022-11-05T17:40:43.231Z,99591.28
2022-11-05T17:43:10.346Z,99597.66
2022-11-05T17:45:44.235Z,99596.84
2022-11-05T17:48:11.229Z,99604.13
2022-11-05T17:50:49.661Z,99599.75
2022-11-05T17:53:16.866Z,99603.41
2022-11-05T17:55:44.219Z,99609.72
2022-11-05T17:58:10.717Z,99607.13
2022-11-05T18:00:37.840Z,99614.31
2022-11-05T18:03:04.746Z,99611.72
2022-11-05T18:05:31.160Z,99611.78
2022-11-05T18:07:58.132Z,99619.81
2022-11-05T18:10:24.652Z,99615.50
2022-11-05T18:12:51.546Z,99621.81
2022-11-05T18:15:18.006Z,99626.19
2022-11-05T18:17:45.595Z,99631.63
2022-11-05T18:20:19.289Z,99632.53
2022-11-05T18:22:46.413Z,99633.56
2022-11-05T18:25:13.543Z,99638.94
2022-11-05T18:27:40.543Z,99636.41
2022-11-05T18:30:07.409Z,99645.34
2022-11-05T18:32:33.869Z,99644.47
2022-11-05T18:35:00.288Z,99644.50
2022-11-05T18:37:26.761Z,99653.41
2022-11-05T18:39:53.429Z,99652.59
2022-11-05T18:42:20.690Z,99646.50
2022-11-05T18:44:47.129Z,99651.03
2022-11-05T18:47:13.885Z,99652.00
2022-11-05T18:49:40.286Z,99655.63
2022-11-05T18:52:06.722Z,99658.31
2022-11-05T18:54:33.181Z,99666.31
2022-11-05T18:56:59.579Z,99658.34
2022-11-05T18:59:41.963Z,99653.97
2022-11-05T19:02:08.802Z,99649.59
2022-11-05T19:04:38.639Z,99652.31
2022-11-05T19:07:06.015Z,99654.19
2022-11-05T19:09:35.780Z,99645.41
2022-11-05T19:12:02.732Z,99650.81
2022-11-05T19:14:30.168Z,99647.34
2022-11-05T19:16:57.506Z,99643.84
2022-11-05T19:19:23.973Z,99650.97
2022-11-05T19:21:50.923Z,99651.06
2022-11-05T19:24:17.533Z,99653.81
2022-11-05T19:26:44.304Z,99648.50
2022-11-05T19:29:10.737Z,99648.53
2022-11-05T19:31:37.191Z,99651.22
2022-11-05T19:34:05.534Z,99650.41
2022-11-05T19:36:32.864Z,99656.63
2022-11-05T19:39:00.758Z,99654.00
2022-11-05T19:41:27.605Z,99655.81
2022-11-05T19:43:54.950Z,99653.16
2022-11-05T19:46:22.331Z,99655.00
2022-11-05T19:48:48.825Z,99664.63
2022-11-05T19:51:25.230Z,99662.94
2022-11-05T19:53:52.862Z,99664.78
2022-11-05T19:56:20.636Z,99667.44
2022-11-05T19:58:47.054Z,99666.59
2022-11-05T20:01:14.358Z,99666.66
2022-11-05T20:03:41.279Z,99659.56
2022-11-05T20:06:09.490Z,99667.53
2022-11-05T20:08:53.080Z,99682.47
2022-11-05T20:11:22.629Z,99677.22
2022-11-05T20:13:49.045Z,99685.16
2022-11-05T20:16:23.218Z,99678.97
2022-11-05T20:18:49.757Z,99678.06
2022-11-05T20:21:16.478Z,99681.63
2022-11-05T20:23:43.090Z,99679.00
2022-11-05T20:26:10.426Z,99687.88
2022-11-05T20:28:38.088Z,99689.69
2022-11-05T20:31:08.574Z,99688.88
2022-11-05T20:33:35.260Z,99693.31
2022-11-05T20:36:02.659Z,99693.31
2022-11-05T20:38:29.030Z,99700.47
2022-11-05T20:40:55.408Z,99700.53
2022-11-05T20:43:24.813Z,99706.09
2022-11-05T20:45:55.488Z,99703.53
2022-11-05T20:48:21.949Z,99702.75
2022-11-05T20:50:48.349Z,99718.69
2022-11-05T20:53:14.767Z,99718.72
2022-11-05T20:55:45.277Z,99719.66
2022-11-05T20:58:12.801Z,99718.75
2022-11-05T21:00:39.611Z,99711.66
2022-11-05T21:03:06.043Z,99707.22
2022-11-05T21:05:35.482Z,99706.38
2022-11-05T21:08:02.239Z,99705.44
2022-11-05T21:10:28.630Z,99694.84
2022-11-05T21:12:55.017Z,99695.75
2022-11-05T21:15:23.198Z,99698.41
2022-11-05T21:17:50.665Z,99696.66
2022-11-05T21:20:17.376Z,99696.66
2022-11-05T21:22:45.435Z,99694.91
2022-11-05T21:25:12.324Z,99695.81
2022-11-05T21:27:43.280Z,99688.75
2022-11-05T21:30:10.806Z,99693.19
2022-11-05T21:32:37.267Z,99702.03
2022-11-05T21:35:05.155Z,99693.25
2022-11-05T21:37:31.990Z,99696.81
2022-11-05T21:40:00.194Z,99703.03
2022-11-05T21:42:28.394Z,99703.06
2022-11-05T21:45:00.027Z,99707.53
2022-11-05T21:47:27.972Z,99716.38
2022-11-05T21:49:54.913Z,99712.84
2022-11-05T21:52:39.700Z,99717.25
2022-11-05T21:55:25.361Z,99715.50
2022-11-05T21:58:10.779Z,99714.63
2022-11-05T22:00:38.186Z,99715.53
2022-11-05T22:03:04.903Z,99709.34
2022-11-05T22:05:31.447Z,99704.91
2022-11-05T22:07:57.950Z,99703.19
2022-11-05T22:10:24.443Z,99705.84
2022-11-05T22:12:50.845Z,99705.91
2022-11-05T22:15:17.493Z,99706.81
2022-11-05T22:17:46.952Z,99706.84
2022-11-05T22:20:14.307Z,99700.66
2022-11-05T22:22:40.700Z,99695.38
2022-11-05T22:25:07.241Z,99686.56
2022-11-05T22:27:33.638Z,99697.19
2022-11-05T22:29:59.969Z,99691.00
2022-11-05T22:32:26.446Z,99696.31
2022-11-05T22:34:52.901Z,99695.44
2022-11-05T22:37:19.347Z,99689.28
2022-11-05T22:39:45.709Z,99687.53
2022-11-05T22:42:12.497Z,99687.53
2022-11-05T22:44:39.271Z,99682.25
2022-11-05T22:47:06.325Z,99683.16
2022-11-05T22:49:32.922Z,99684.94
2022-11-05T22:51:59.599Z,99687.56
2022-11-05T22:54:26.015Z,99685.84
2022-11-05T22:56:53.760Z,99678.81
2022-11-05T22:59:20.805Z,99688.53
2022-11-05T23:01:47.704Z,99688.56
2022-11-05T23:04:14.268Z,99685.03
2022-11-05T23:06:59.516Z,99690.34
2022-11-05T23:09:45.847Z,99696.50
2022-11-05T23:12:28.673Z,99700.06
2022-11-05T23:14:55.937Z,99690.34
2022-11-05T23:17:41.143Z,99688.59
2022-11-05T23:20:29.163Z,99695.69
2022-11-05T23:23:14.617Z,99703.63
2022-11-05T23:25:41.390Z,99700.09
2022-11-05T23:28:10.004Z,99694.78
2022-11-05T23:30:57.689Z,99695.69
2022-11-05T23:33:24.773Z,99692.22
2022-11-05T23:36:09.980Z,99696.66
2022-11-05T23:38:37.860Z,99697.53
2022-11-05T23:41:24.284Z,99689.59
2022-11-05T23:44:09.566Z,99686.09
2022-11-05T23:46:55.162Z,99690.47
2022-11-05T23:49:21.708Z,99693.16
2022-11-05T23:51:48.781Z,99697.53
2022-11-05T23:54:15.281Z,99701.09
2022-11-05T23:56:41.811Z,99706.41
2022-11-05T23:59:08.200Z,99706.47
